Terminal Aerodrome Forecast
Issued by NWS

Home | Current Version | Previous Version | Text Only | Print | Product List | Glossary On
Versions: 1 2 3 4 5 6 7 8 9 10 11 12 13 14 15
000
FTUS44 KTSA 301700
TAFBVO
TAF
KBVO 301723Z 3018/3118 34012KT P6SM OVC015
     FM302200 01008KT P6SM BKN025
     FM310300 02004KT P6SM BKN015
      TEMPO 3111/3115 BKN008
     FM311500 02006KT P6SM BKN025=

USA.gov is the U.S. government's official web portal to all federal, state and local government web resources and services.